Time;durP1;ratioP1;P1;durP2;ratioP2;P2;SDS_P1;SDS_P2;PMS_P1;PMS_P2;Temp;Humidity;BMP_temperature;BMP_pressure;BME280_temperature;BME280_humidity;BME280_pressure;Samples;Min_cycle;Max_cycle;Signal;HPM_P1;HPM_P2
2021/11/05 00:02:00;;;;;;;21.85;12.27;;;435.20;2355.20;;;;;;5052010;28;20048;-78
2021/11/05 00:04:26;;;;;;;21.88;12.57;;;410.30;2355.20;;;;;;5052461;28;20062;-78
2021/11/05 00:06:51;;;;;;;28.33;16.95;;;410.30;2355.20;;;;;;5053498;28;20025;-77
2021/11/05 00:09:17;;;;;;;26.52;14.63;;;410.30;2355.20;;;;;;5052124;28;20055;-78
2021/11/05 00:11:43;;;;;;;29.63;16.90;;;410.30;2355.20;;;;;;5052436;28;20020;-77
2021/11/05 00:14:09;;;;;;;26.85;12.80;;;410.20;2355.20;;;;;;5052441;28;20078;-80
2021/11/05 00:16:35;;;;;;;25.92;14.57;;;410.20;2355.20;;;;;;5052045;28;20449;-77
2021/11/05 00:19:00;;;;;;;25.27;12.55;;;410.20;2355.20;;;;;;5052360;28;20032;-78
2021/11/05 00:21:26;;;;;;;26.38;15.05;;;410.20;2355.20;;;;;;5052437;28;20112;-80
2021/11/05 00:23:52;;;;;;;30.85;16.60;;;410.20;2355.20;;;;;;5051628;28;20021;-78
2021/11/05 00:26:18;;;;;;;23.48;13.32;;;410.20;2355.20;;;;;;5052312;28;20028;-79
2021/11/05 00:28:44;;;;;;;23.58;13.23;;;410.00;2355.20;;;;;;5052376;28;20021;-78
2021/11/05 00:31:09;;;;;;;21.85;12.98;;;410.00;2355.20;;;;;;5052005;28;20021;-79
2021/11/05 00:33:35;;;;;;;31.63;16.40;;;410.00;2355.20;;;;;;5053512;28;20453;-79
2021/11/05 00:36:01;;;;;;;26.92;15.38;;;409.70;2355.20;;;;;;5053953;28;20142;-79
2021/11/05 00:38:27;;;;;;;24.42;14.15;;;409.80;2355.20;;;;;;5055906;28;20020;-78
2021/11/05 00:40:52;;;;;;;31.58;18.08;;;409.90;2355.20;;;;;;5056158;28;20108;-77
2021/11/05 00:43:18;;;;;;;27.42;15.95;;;409.70;2355.20;;;;;;5055992;28;20376;-78
2021/11/05 00:45:44;;;;;;;36.58;19.30;;;409.80;2355.20;;;;;;5055783;28;20111;-78
2021/11/05 00:48:10;;;;;;;34.85;16.95;;;409.90;2355.20;;;;;;5056108;28;20021;-77
2021/11/05 00:50:36;;;;;;;25.15;13.68;;;409.80;2355.20;;;;;;5056094;28;20024;-78
2021/11/05 00:53:02;;;;;;;27.23;14.38;;;409.80;2355.20;;;;;;5056629;28;20051;-76
2021/11/05 00:55:28;;;;;;;27.25;17.27;;;410.00;2355.20;;;;;;5055930;28;20056;-77
2021/11/05 00:57:53;;;;;;;22.80;15.05;;;409.90;2355.20;;;;;;5055600;28;20029;-77
2021/11/05 01:00:19;;;;;;;27.95;15.65;;;410.00;2355.20;;;;;;5056813;28;20514;-77
2021/11/05 01:02:45;;;;;;;40.55;21.85;;;409.80;2355.20;;;;;;5055814;28;20037;-77
2021/11/05 01:05:13;;;;;;;37.58;24.80;;;409.80;2355.20;;;;;;5055496;28;20059;-79
2021/11/05 01:07:40;;;;;;;31.67;17.15;;;409.80;2355.20;;;;;;5055867;28;20029;-79
2021/11/05 01:10:07;;;;;;;61.50;35.17;;;409.70;2355.20;;;;;;5057407;28;20025;-77
2021/11/05 01:12:33;;;;;;;48.72;26.90;;;409.80;2355.20;;;;;;5055600;28;20342;-77
2021/11/05 01:14:59;;;;;;;39.33;21.15;;;409.70;2355.20;;;;;;5055701;28;20029;-78
2021/11/05 01:17:25;;;;;;;30.08;17.35;;;409.70;2355.20;;;;;;5056672;28;20053;-80
2021/11/05 01:19:51;;;;;;;21.27;13.43;;;409.70;2355.20;;;;;;5055370;28;20024;-77
2021/11/05 01:22:17;;;;;;;29.58;17.48;;;409.60;2355.20;;;;;;5056761;28;20100;-77
2021/11/05 01:24:43;;;;;;;29.80;18.92;;;409.60;2355.20;;;;;;5055436;28;20087;-78
2021/11/05 01:27:09;;;;;;;35.78;20.52;;;384.90;2329.60;;;;;;5056442;28;20036;-79
2021/11/05 01:29:35;;;;;;;26.98;13.20;;;384.90;2329.60;;;;;;5056799;28;20025;-78
2021/11/05 01:32:02;;;;;;;18.00;10.60;;;384.90;2329.60;;;;;;5055418;28;20029;-79
2021/11/05 01:34:28;;;;;;;17.92;10.85;;;384.80;2329.60;;;;;;5056158;28;20131;-80
2021/11/05 01:36:54;;;;;;;21.85;12.63;;;384.60;2329.60;;;;;;5055272;28;20496;-78
2021/11/05 01:39:20;;;;;;;20.92;12.00;;;384.50;2329.60;;;;;;5055191;28;20056;-77
2021/11/05 01:41:45;;;;;;;23.20;11.05;;;384.30;2329.60;;;;;;5055835;28;20053;-79
2021/11/05 01:44:12;;;;;;;17.52;10.60;;;384.30;2329.60;;;;;;5054769;28;20029;-80
2021/11/05 01:46:42;;;;;;;18.52;10.65;;;384.30;2329.60;;;;;;5054503;28;20021;-79
2021/11/05 01:49:10;;;;;;;18.95;10.85;;;384.40;2329.60;;;;;;5054341;28;20067;-78
2021/11/05 01:51:37;;;;;;;19.38;10.30;;;384.30;2329.60;;;;;;5054976;28;20017;-79
2021/11/05 01:54:06;;;;;;;21.08;12.38;;;384.30;2329.60;;;;;;5054783;28;20029;-78
2021/11/05 01:56:32;;;;;;;33.67;17.83;;;384.30;2329.60;;;;;;5054973;28;20360;-78
2021/11/05 01:58:58;;;;;;;24.50;12.68;;;384.30;2329.60;;;;;;5056250;28;20087;-79
2021/11/05 02:01:24;;;;;;;24.02;13.18;;;384.30;2329.60;;;;;;5055582;28;20017;-78
2021/11/05 02:03:50;;;;;;;21.08;11.38;;;384.20;2329.60;;;;;;5054786;28;20029;-79
2021/11/05 02:06:20;;;;;;;44.05;18.45;;;384.30;2329.60;;;;;;5054673;28;20368;-78
2021/11/05 02:08:47;;;;;;;29.75;14.55;;;384.30;2329.60;;;;;;5054478;28;20025;-78
2021/11/05 02:11:13;;;;;;;26.27;14.75;;;384.40;2329.60;;;;;;5054593;28;20342;-78
2021/11/05 02:13:44;;;;;;;26.10;14.15;;;384.40;2329.60;;;;;;5054479;28;20025;-79
2021/11/05 02:16:10;;;;;;;16.70;10.00;;;384.60;2329.60;;;;;;5055542;28;20021;-77
2021/11/05 02:18:36;;;;;;;19.15;11.32;;;384.90;2329.60;;;;;;5054633;28;20025;-79
2021/11/05 02:21:03;;;;;;;24.05;13.82;;;384.90;2329.60;;;;;;5054438;28;20519;-79
2021/11/05 02:23:28;;;;;;;32.63;17.25;;;384.90;2329.60;;;;;;5053988;28;20131;-80
2021/11/05 02:25:54;;;;;;;27.90;12.07;;;384.90;2329.60;;;;;;5055254;28;20472;-79
2021/11/05 02:28:20;;;;;;;18.73;9.90;;;409.70;2355.20;;;;;;5054392;28;20032;-80
2021/11/05 02:30:47;;;;;;;24.17;12.68;;;409.80;2355.20;;;;;;5055271;28;20104;-80
2021/11/05 02:33:13;;;;;;;22.33;11.98;;;410.20;2355.20;;;;;;5055400;28;20021;-79
2021/11/05 02:35:39;;;;;;;23.48;10.25;;;409.90;2355.20;;;;;;5054254;28;20044;-80
2021/11/05 02:38:05;;;;;;;21.88;10.52;;;409.70;2355.20;;;;;;5054773;28;20457;-80
2021/11/05 02:40:31;;;;;;;24.73;12.80;;;409.60;2355.20;;;;;;5054102;28;20032;-79
2021/11/05 02:42:56;;;;;;;21.15;11.55;;;384.80;2329.60;;;;;;5055120;28;20017;-80
2021/11/05 02:45:22;;;;;;;24.88;11.55;;;384.80;2329.60;;;;;;5054014;28;20025;-78
2021/11/05 02:47:48;;;;;;;23.65;9.93;;;384.50;2329.60;;;;;;5054077;28;20052;-79
2021/11/05 02:50:16;;;;;;;20.38;10.88;;;384.20;2329.60;;;;;;5053557;28;20025;-77
2021/11/05 02:52:42;;;;;;;17.85;9.70;;;359.30;2329.60;;;;;;5054088;28;20476;-77
2021/11/05 02:55:11;;;;;;;25.90;11.52;;;359.20;2329.60;;;;;;5053917;28;20536;-77
2021/11/05 02:57:38;;;;;;;20.42;10.50;;;359.10;2329.60;;;;;;5053434;28;20025;-76
2021/11/05 03:00:06;;;;;;;18.45;10.23;;;359.10;2329.60;;;;;;5054077;28;20086;-77
2021/11/05 03:02:32;;;;;;;18.92;9.82;;;359.20;2329.60;;;;;;5053323;28;20043;-77
2021/11/05 03:04:57;;;;;;;22.65;10.10;;;359.10;2329.60;;;;;;5054209;28;20025;-76
2021/11/05 03:07:23;;;;;;;22.15;9.80;;;359.20;2329.60;;;;;;5053508;28;20052;-76
2021/11/05 03:09:49;;;;;;;21.80;10.98;;;359.10;2329.60;;;;;;5055183;28;20099;-79
2021/11/05 03:12:15;;;;;;;24.40;10.77;;;359.10;2329.60;;;;;;5053197;28;20017;-77
2021/11/05 03:14:41;;;;;;;23.73;12.57;;;359.10;2329.60;;;;;;5053415;28;20064;-80
2021/11/05 03:17:07;;;;;;;18.08;10.27;;;359.10;2329.60;;;;;;5053552;28;20056;-78
2021/11/05 03:19:34;;;;;;;19.90;11.55;;;359.20;2329.60;;;;;;5054546;28;20028;-79
2021/11/05 03:22:00;;;;;;;18.75;10.02;;;359.10;2329.60;;;;;;5053374;28;20021;-79
2021/11/05 03:24:26;;;;;;;21.75;12.10;;;359.10;2329.60;;;;;;5054516;28;20099;-79
2021/11/05 03:26:52;;;;;;;27.88;11.20;;;359.20;2329.60;;;;;;5052984;28;20028;-81
2021/11/05 03:29:18;;;;;;;15.60;10.13;;;359.20;2329.60;;;;;;5053321;28;20119;-81
2021/11/05 03:31:45;;;;;;;22.48;10.18;;;359.10;2329.60;;;;;;5054340;28;20120;-80
2021/11/05 03:34:11;;;;;;;16.90;9.50;;;358.80;2329.60;;;;;;5052887;28;20108;-80
2021/11/05 03:36:37;;;;;;;28.73;14.70;;;358.70;2329.60;;;;;;5054280;28;20082;-79
2021/11/05 03:39:05;;;;;;;27.48;14.35;;;358.70;2329.60;;;;;;5052683;28;20021;-79
2021/11/05 03:41:31;;;;;;;21.13;11.23;;;358.70;2329.60;;;;;;5052943;28;20449;-77
2021/11/05 03:43:57;;;;;;;23.15;12.90;;;358.50;2329.60;;;;;;5052809;28;20025;-76
2021/11/05 03:46:23;;;;;;;37.95;13.57;;;358.50;2329.60;;;;;;5052574;28;20051;-78
2021/11/05 03:48:49;;;;;;;40.58;27.10;;;358.60;2329.60;;;;;;5052826;28;20021;-79
2021/11/05 03:51:15;;;;;;;27.60;16.80;;;358.40;2329.60;;;;;;5052889;28;20075;-79
2021/11/05 03:53:41;;;;;;;26.23;14.30;;;358.50;2329.60;;;;;;5053382;28;20452;-77
2021/11/05 03:56:07;;;;;;;23.20;12.38;;;358.50;2329.60;;;;;;5052826;28;20448;-76
2021/11/05 03:58:34;;;;;;;57.00;26.98;;;358.50;2329.60;;;;;;5052740;28;20025;-77
2021/11/05 04:01:00;;;;;;;59.95;24.80;;;358.50;2329.60;;;;;;5052310;28;20021;-76
2021/11/05 04:03:26;;;;;;;101.22;37.53;;;358.40;2329.60;;;;;;5051942;28;20041;-77
2021/11/05 04:05:52;;;;;;;49.95;22.75;;;358.70;2329.60;;;;;;5052523;28;20025;-77
2021/11/05 04:08:18;;;;;;;45.97;20.33;;;358.70;2329.60;;;;;;5052390;28;20025;-76
2021/11/05 04:10:44;;;;;;;35.17;16.88;;;358.70;2329.60;;;;;;5052013;28;20032;-77
2021/11/05 04:13:09;;;;;;;34.15;15.60;;;358.80;2329.60;;;;;;5052513;28;20036;-79
2021/11/05 04:15:35;;;;;;;38.22;21.70;;;358.80;2329.60;;;;;;5053737;28;20017;-80
2021/11/05 04:18:01;;;;;;;35.03;18.50;;;358.70;2329.60;;;;;;5054024;28;20404;-80
2021/11/05 04:20:27;;;;;;;30.70;17.10;;;358.60;2329.60;;;;;;5053320;28;20017;-77
2021/11/05 04:22:53;;;;;;;32.20;18.17;;;358.50;2329.60;;;;;;5051992;28;20044;-79
2021/11/05 04:25:18;;;;;;;26.10;16.40;;;358.60;2329.60;;;;;;5052234;28;20084;-77
2021/11/05 04:27:44;;;;;;;32.88;15.35;;;358.60;2329.60;;;;;;5053836;28;20029;-77
2021/11/05 04:30:13;;;;;;;31.75;19.45;;;358.60;2329.60;;;;;;5053624;28;20028;-78
2021/11/05 04:32:40;;;;;;;32.85;19.65;;;358.50;2329.60;;;;;;5052333;28;20027;-77
2021/11/05 04:35:06;;;;;;;35.05;17.58;;;358.50;2329.60;;;;;;5052011;28;20048;-77
2021/11/05 04:37:32;;;;;;;30.17;17.95;;;358.60;2329.60;;;;;;5052346;28;20366;-76
2021/11/05 04:39:57;;;;;;;28.42;16.90;;;358.60;2329.60;;;;;;5052248;28;20025;-76
2021/11/05 04:42:23;;;;;;;35.38;19.02;;;358.50;2329.60;;;;;;5053464;28;20102;-79
2021/11/05 04:44:49;;;;;;;35.47;17.30;;;358.50;2329.60;;;;;;5052142;28;20025;-79
2021/11/05 04:47:16;;;;;;;24.17;15.85;;;358.40;2329.60;;;;;;5053110;28;20027;-79
2021/11/05 04:49:42;;;;;;;30.13;16.27;;;333.70;2329.60;;;;;;5052817;28;20461;-77
2021/11/05 04:52:08;;;;;;;30.67;16.23;;;358.40;2329.60;;;;;;5052125;28;20028;-77
2021/11/05 04:54:34;;;;;;;28.95;16.63;;;333.70;2329.60;;;;;;5051987;28;20037;-76
2021/11/05 04:57:00;;;;;;;28.90;22.45;;;333.50;2329.60;;;;;;5051718;28;20028;-76
2021/11/05 04:59:26;;;;;;;33.65;22.67;;;333.60;2329.60;;;;;;5053537;28;20025;-76
2021/11/05 05:01:52;;;;;;;34.70;20.67;;;333.50;2329.60;;;;;;5051693;28;20052;-79
2021/11/05 05:04:17;;;;;;;29.33;19.55;;;333.50;2329.60;;;;;;5053011;28;20496;-77
2021/11/05 05:06:43;;;;;;;29.27;18.00;;;333.40;2329.60;;;;;;5053445;28;20032;-76
2021/11/05 05:09:10;;;;;;;32.83;21.70;;;333.50;2329.60;;;;;;5051990;28;20017;-76
2021/11/05 05:11:36;;;;;;;41.17;27.85;;;333.60;2329.60;;;;;;5051674;28;20032;-77
2021/11/05 05:14:02;;;;;;;39.58;25.63;;;333.60;2329.60;;;;;;5052905;28;20376;-75
2021/11/05 05:16:27;;;;;;;33.40;24.75;;;333.70;2329.60;;;;;;5051882;28;20119;-75
2021/11/05 05:18:53;;;;;;;39.22;24.48;;;333.70;2329.60;;;;;;5051568;28;20040;-77
2021/11/05 05:21:19;;;;;;;30.80;21.05;;;333.70;2329.60;;;;;;5051745;28;20025;-77
2021/11/05 05:23:45;;;;;;;28.40;17.55;;;333.70;2329.60;;;;;;5054052;28;20067;-78
2021/11/05 05:26:10;;;;;;;31.02;18.45;;;333.70;2329.60;;;;;;5055149;28;20043;-78
2021/11/05 05:28:36;;;;;;;27.88;17.27;;;333.70;2329.60;;;;;;5055415;28;20104;-76
2021/11/05 05:31:07;;;;;;;23.60;15.43;;;333.70;2329.60;;;;;;5055057;28;20032;-77
2021/11/05 05:33:35;;;;;;;22.02;12.85;;;333.70;2329.60;;;;;;5055518;28;20494;-77
2021/11/05 05:36:03;;;;;;;24.45;14.52;;;333.70;2329.60;;;;;;5056294;28;20013;-76
2021/11/05 05:38:29;;;;;;;30.45;15.90;;;358.40;2329.60;;;;;;5055019;28;20024;-76
2021/11/05 05:40:54;;;;;;;26.92;17.30;;;333.70;2329.60;;;;;;5055113;28;20178;-76
2021/11/05 05:43:20;;;;;;;26.70;18.27;;;358.40;2329.60;;;;;;5055019;28;20025;-76
2021/11/05 05:45:46;;;;;;;28.02;15.75;;;333.70;2329.60;;;;;;5054818;28;20112;-78
2021/11/05 05:48:12;;;;;;;31.08;16.55;;;358.40;2329.60;;;;;;5056638;28;20092;-77
2021/11/05 05:50:38;;;;;;;28.40;15.75;;;358.40;2329.60;;;;;;5055939;28;20021;-77
2021/11/05 05:53:03;;;;;;;32.78;17.33;;;333.60;2329.60;;;;;;5054649;28;20025;-76
2021/11/05 05:55:30;;;;;;;39.70;18.67;;;333.70;2329.60;;;;;;5054849;28;20075;-76
2021/11/05 05:57:55;;;;;;;35.33;18.10;;;333.70;2329.60;;;;;;5054732;28;20024;-76
2021/11/05 06:00:21;;;;;;;33.20;19.40;;;333.70;2329.60;;;;;;5054579;28;20017;-76
2021/11/05 06:02:47;;;;;;;39.28;19.23;;;358.40;2329.60;;;;;;5054359;28;20447;-77
2021/11/05 06:05:14;;;;;;;37.92;20.13;;;333.70;2329.60;;;;;;5056040;28;20025;-75
2021/11/05 06:07:40;;;;;;;37.35;22.38;;;333.70;2329.60;;;;;;5054188;28;20032;-78
2021/11/05 06:10:06;;;;;;;32.45;21.90;;;333.70;2329.60;;;;;;5054598;28;20018;-78
2021/11/05 06:12:32;;;;;;;38.70;22.70;;;333.70;2329.60;;;;;;5055775;28;20152;-79
2021/11/05 06:14:59;;;;;;;38.45;23.73;;;333.70;2329.60;;;;;;5055463;28;20112;-76
2021/11/05 06:17:25;;;;;;;31.98;19.88;;;333.70;2329.60;;;;;;5054669;28;20026;-80
2021/11/05 06:19:51;;;;;;;30.45;15.18;;;358.40;2329.60;;;;;;5055434;28;20025;-76
2021/11/05 06:22:19;;;;;;;25.15;15.90;;;333.70;2329.60;;;;;;5054389;28;20021;-76
2021/11/05 06:24:45;;;;;;;30.77;14.48;;;358.40;2329.60;;;;;;5054291;28;20520;-78
2021/11/05 06:27:12;;;;;;;35.83;17.67;;;333.70;2329.60;;;;;;5055071;28;20384;-77
2021/11/05 06:29:39;;;;;;;42.00;20.17;;;358.50;2329.60;;;;;;5054224;28;20017;-77
2021/11/05 06:32:05;;;;;;;40.90;24.35;;;358.60;2329.60;;;;;;5054041;28;20107;-77
2021/11/05 06:34:32;;;;;;;58.45;36.40;;;358.70;2329.60;;;;;;5053512;28;20059;-76
2021/11/05 06:36:57;;;;;;;42.22;26.85;;;358.80;2329.60;;;;;;5054168;28;20025;-78
2021/11/05 06:39:24;;;;;;;31.83;19.08;;;358.90;2329.60;;;;;;5054201;28;20708;-77
2021/11/05 06:41:50;;;;;;;36.28;21.48;;;358.90;2329.60;;;;;;5055159;28;20067;-77
2021/11/05 06:44:16;;;;;;;47.45;31.23;;;359.00;2329.60;;;;;;5055158;28;20024;-79
2021/11/05 06:46:42;;;;;;;50.85;33.75;;;359.10;2329.60;;;;;;5055184;28;20028;-77
2021/11/05 06:49:08;;;;;;;34.13;23.67;;;359.20;2329.60;;;;;;5053633;28;20445;-77
2021/11/05 06:51:34;;;;;;;34.90;21.63;;;359.30;2329.60;;;;;;5054870;28;20374;-78
2021/11/05 06:54:00;;;;;;;66.20;45.78;;;384.00;2329.60;;;;;;5053744;28;20063;-77
2021/11/05 06:56:26;;;;;;;53.60;40.25;;;384.10;2329.60;;;;;;5053352;28;20107;-77
2021/11/05 06:58:56;;;;;;;40.28;31.25;;;384.10;2329.60;;;;;;5053571;28;20107;-77
2021/11/05 07:01:23;;;;;;;43.88;26.38;;;384.20;2329.60;;;;;;5054955;28;20060;-78
2021/11/05 07:03:48;;;;;;;66.32;56.15;;;384.30;2329.60;;;;;;5053414;28;20021;-78
2021/11/05 07:06:14;;;;;;;71.60;46.53;;;384.20;2329.60;;;;;;5055015;28;20021;-77
2021/11/05 07:08:40;;;;;;;57.90;38.03;;;384.30;2329.60;;;;;;5054711;28;20021;-77
2021/11/05 07:11:06;;;;;;;36.28;20.13;;;384.40;2329.60;;;;;;5053182;28;20032;-78
2021/11/05 07:13:32;;;;;;;36.80;25.40;;;384.40;2329.60;;;;;;5053345;28;20025;-77
2021/11/05 07:15:58;;;;;;;35.38;22.15;;;384.60;2329.60;;;;;;5054384;28;20464;-79
2021/11/05 07:18:24;;;;;;;40.80;22.10;;;384.70;2329.60;;;;;;5053259;28;20459;-79
2021/11/05 07:20:51;;;;;;;39.72;25.23;;;384.70;2329.60;;;;;;5054607;28;20021;-77
2021/11/05 07:23:17;;;;;;;41.25;24.77;;;384.70;2329.60;;;;;;5052940;28;20035;-78
2021/11/05 07:25:43;;;;;;;39.65;26.38;;;384.70;2329.60;;;;;;5053119;28;20474;-77
2021/11/05 07:28:09;;;;;;;48.80;29.02;;;384.70;2329.60;;;;;;5054397;28;20100;-79
2021/11/05 07:30:37;;;;;;;45.58;28.80;;;384.60;2329.60;;;;;;5052783;28;20052;-77
2021/11/05 07:33:03;;;;;;;41.92;28.95;;;384.30;2329.60;;;;;;5053107;28;20021;-78
2021/11/05 07:35:29;;;;;;;43.92;31.13;;;384.40;2329.60;;;;;;5052948;28;20116;-78
2021/11/05 07:37:55;;;;;;;42.95;31.70;;;384.40;2329.60;;;;;;5053046;28;20368;-77
2021/11/05 07:40:23;;;;;;;49.80;30.55;;;384.50;2329.60;;;;;;5052924;28;20025;-78
2021/11/05 07:42:49;;;;;;;45.85;34.22;;;384.40;2329.60;;;;;;5052905;28;20472;-78
2021/11/05 07:45:17;;;;;;;57.03;37.90;;;384.60;2329.60;;;;;;5052075;28;20036;-79
2021/11/05 07:47:44;;;;;;;49.30;32.42;;;384.50;2329.60;;;;;;5053728;28;20359;-77
2021/11/05 07:50:12;;;;;;;49.28;34.33;;;384.50;2329.60;;;;;;5052787;28;20021;-78
2021/11/05 07:52:38;;;;;;;56.30;37.05;;;384.60;2329.60;;;;;;5052717;28;20021;-77
2021/11/05 07:55:07;;;;;;;51.42;36.53;;;384.60;2329.60;;;;;;5053700;28;20035;-78
2021/11/05 07:57:33;;;;;;;62.38;40.15;;;384.70;2329.60;;;;;;5054100;28;20466;-78
2021/11/05 07:59:59;;;;;;;67.20;49.33;;;384.70;2329.60;;;;;;5052714;28;20028;-80
2021/11/05 08:02:26;;;;;;;46.22;29.63;;;384.80;2329.60;;;;;;5052054;28;20616;-78
2021/11/05 08:04:51;;;;;;;41.72;25.05;;;384.80;2329.60;;;;;;5052532;28;20396;-78
2021/11/05 08:07:21;;;;;;;47.22;28.73;;;384.40;2329.60;;;;;;5052279;28;20069;-78
2021/11/05 08:09:47;;;;;;;42.58;27.48;;;384.80;2329.60;;;;;;5052151;28;20090;-78
2021/11/05 08:12:13;;;;;;;46.65;35.22;;;409.60;2355.20;;;;;;5053674;28;20045;-78
2021/11/05 08:14:39;;;;;;;56.92;39.50;;;409.60;2355.20;;;;;;5053705;28;20025;-78
2021/11/05 08:17:05;;;;;;;49.35;36.28;;;409.60;2355.20;;;;;;5052228;28;20017;-79
2021/11/05 08:19:31;;;;;;;56.88;35.38;;;409.70;2355.20;;;;;;5052604;28;20025;-78
2021/11/05 08:21:57;;;;;;;77.07;48.42;;;409.80;2355.20;;;;;;5052802;28;20357;-78
2021/11/05 08:24:23;;;;;;;75.00;51.58;;;409.90;2355.20;;;;;;5051975;28;20025;-76
2021/11/05 08:26:49;;;;;;;91.93;58.85;;;410.00;2355.20;;;;;;5053301;28;20103;-77
2021/11/05 08:29:16;;;;;;;111.45;68.35;;;410.00;2355.20;;;;;;5052347;28;20027;-78
2021/11/05 08:31:42;;;;;;;92.70;59.25;;;410.20;2355.20;;;;;;5052061;28;20025;-77
2021/11/05 08:34:08;;;;;;;89.55;59.20;;;410.20;2355.20;;;;;;5053551;28;20373;-77
2021/11/05 08:36:34;;;;;;;77.78;54.63;;;410.50;2355.20;;;;;;5053030;28;20049;-75
2021/11/05 08:39:00;;;;;;;71.50;48.05;;;410.50;2355.20;;;;;;5053485;28;20017;-76
2021/11/05 08:41:26;;;;;;;65.28;43.22;;;435.30;2355.20;;;;;;5053233;28;20025;-76
2021/11/05 08:43:56;;;;;;;53.42;33.70;;;435.40;2355.20;;;;;;5055092;28;20028;-75
2021/11/05 08:46:23;;;;;;;53.33;33.58;;;435.50;2355.20;;;;;;5055644;28;20021;-75
2021/11/05 08:48:55;;;;;;;49.35;32.58;;;435.60;2355.20;;;;;;5053250;28;20027;-78
2021/11/05 08:51:22;;;;;;;62.65;38.42;;;435.60;2355.20;;;;;;5051774;28;20021;-77
2021/11/05 08:53:48;;;;;;;62.42;40.78;;;435.80;2355.20;;;;;;5053293;28;20120;-77
2021/11/05 08:56:15;;;;;;;70.00;44.55;;;435.80;2355.20;;;;;;5052338;28;20483;-78
2021/11/05 08:58:42;;;;;;;56.40;36.13;;;435.90;2355.20;;;;;;5055611;28;20017;-77
2021/11/05 09:01:08;;;;;;;56.13;38.08;;;436.00;2355.20;;;;;;5056048;28;20071;-77
2021/11/05 09:03:34;;;;;;;61.33;39.83;;;436.10;2355.20;;;;;;5055479;28;20037;-77
2021/11/05 09:06:01;;;;;;;56.20;37.67;;;460.90;2380.80;;;;;;5055549;28;20092;-77
2021/11/05 09:08:30;;;;;;;45.33;32.58;;;460.90;2380.80;;;;;;5057061;28;20017;-78
2021/11/05 09:10:57;;;;;;;55.78;36.15;;;460.90;2380.80;;;;;;5055706;28;20024;-77
2021/11/05 09:13:23;;;;;;;55.33;36.08;;;461.10;2380.80;;;;;;5055433;28;20035;-77
2021/11/05 09:15:49;;;;;;;49.78;27.75;;;461.10;2380.80;;;;;;5055815;28;20051;-76
2021/11/05 09:18:15;;;;;;;49.13;30.38;;;461.20;2380.80;;;;;;5055627;28;20407;-79
2021/11/05 09:20:41;;;;;;;43.78;28.05;;;461.20;2380.80;;;;;;5055436;28;20412;-79
2021/11/05 09:23:08;;;;;;;44.42;28.83;;;461.30;2380.80;;;;;;5055553;28;20021;-78
2021/11/05 09:25:34;;;;;;;29.95;20.15;;;461.40;2380.80;;;;;;5055247;28;20028;-79
2021/11/05 09:28:00;;;;;;;33.90;19.27;;;461.40;2380.80;;;;;;5055515;28;20033;-80
2021/11/05 09:30:26;;;;;;;34.90;19.60;;;461.60;2380.80;;;;;;5056149;28;20025;-80
2021/11/05 09:32:53;;;;;;;46.38;28.50;;;461.70;2380.80;;;;;;5055006;28;20025;-80
2021/11/05 09:35:20;;;;;;;39.10;26.67;;;486.40;2380.80;;;;;;5055403;28;20017;-84
2021/11/05 09:37:49;;;;;;;40.30;23.25;;;486.50;2380.80;;;;;;5054994;28;20043;-78
2021/11/05 09:40:15;;;;;;;40.40;28.23;;;486.60;2380.80;;;;;;5055136;28;20049;-78
2021/11/05 09:42:47;;;;;;;47.20;32.10;;;486.70;2380.80;;;;;;5055160;28;20024;-76
2021/11/05 09:45:14;;;;;;;46.42;32.28;;;486.80;2380.80;;;;;;5056005;28;20453;-77
2021/11/05 09:47:42;;;;;;;69.20;50.17;;;486.90;2380.80;;;;;;5056007;28;20021;-77
2021/11/05 09:50:09;;;;;;;58.33;41.25;;;487.00;2380.80;;;;;;5054924;28;20453;-77
2021/11/05 09:52:35;;;;;;;60.17;41.35;;;487.10;2380.80;;;;;;5054902;28;20028;-77
2021/11/05 09:55:02;;;;;;;62.20;45.83;;;487.10;2380.80;;;;;;5055856;28;20021;-77
2021/11/05 09:57:28;;;;;;;50.13;38.33;;;487.30;2380.80;;;;;;5054902;28;20057;-76
2021/11/05 09:59:56;;;;;;;51.10;35.92;;;512.00;2380.80;;;;;;5056080;28;20029;-76
2021/11/05 10:02:24;;;;;;;33.95;26.40;;;512.20;2380.80;;;;;;5054262;28;20041;-78
2021/11/05 10:04:51;;;;;;;32.08;20.42;;;512.30;2380.80;;;;;;5054577;28;20048;-75
2021/11/05 10:07:17;;;;;;;27.92;18.85;;;512.40;2380.80;;;;;;5054613;28;20021;-76
2021/11/05 10:09:46;;;;;;;22.92;14.32;;;512.60;2380.80;;;;;;5054953;28;20021;-76
2021/11/05 10:12:16;;;;;;;31.85;20.38;;;512.70;2380.80;;;;;;5054519;28;20457;-77
2021/11/05 10:14:43;;;;;;;32.45;21.80;;;512.80;2380.80;;;;;;5055462;28;20029;-75
2021/11/05 10:17:15;;;;;;;43.42;29.05;;;537.60;2406.40;;;;;;5054531;28;20032;-76
2021/11/05 10:19:57;;;;;;;38.90;23.45;;;537.70;2406.40;;;;;;5056066;28;20070;-76
2021/11/05 10:22:43;;;;;;;20.83;12.32;;;537.80;2406.40;;;;;;5055431;28;20021;-78
2021/11/05 10:25:34;;;;;;;28.92;16.65;;;538.00;2406.40;;;;;;5054236;28;20078;-75
2021/11/05 10:28:12;;;;;;;26.98;18.60;;;538.20;2406.40;;;;;;5055306;28;20017;-76
2021/11/05 10:31:00;;;;;;;26.67;17.98;;;538.40;2406.40;;;;;;5053854;28;20078;-76
2021/11/05 10:33:41;;;;;;;34.70;26.70;;;538.40;2406.40;;;;;;5051602;28;20115;-78
2021/11/05 10:36:15;;;;;;;27.58;14.52;;;538.50;2406.40;;;;;;5053997;28;20419;-76
2021/11/05 10:39:03;;;;;;;27.80;21.20;;;563.20;2432.00;;;;;;5054156;28;20411;-76
2021/11/05 10:41:31;;;;;;;21.58;10.90;;;563.30;2432.00;;;;;;5053153;28;20025;-76
2021/11/05 10:44:12;;;;;;;16.00;7.63;;;563.30;2432.00;;;;;;5054847;28;20043;-75
2021/11/05 10:46:39;;;;;;;19.58;8.88;;;563.30;2432.00;;;;;;5055104;28;20055;-75
2021/11/05 10:49:07;;;;;;;18.25;10.38;;;563.40;2432.00;;;;;;5053935;28;20031;-75
2021/11/05 10:51:34;;;;;;;21.48;9.43;;;563.50;2432.00;;;;;;5053514;28;20067;-74
2021/11/05 10:54:01;;;;;;;18.88;8.32;;;563.50;2432.00;;;;;;5055006;28;20029;-76
2021/11/05 10:56:30;;;;;;;23.10;8.60;;;563.60;2432.00;;;;;;5054476;28;20039;-74
2021/11/05 10:59:01;;;;;;;18.77;7.93;;;563.70;2432.00;;;;;;5053617;28;20021;-76
2021/11/05 11:01:34;;;;;;;29.08;13.48;;;563.70;2432.00;;;;;;5054607;28;21361;-77
2021/11/05 11:04:05;;;;;;;24.52;13.95;;;563.70;2432.00;;;;;;5054603;28;20116;-75
2021/11/05 11:06:38;;;;;;;17.55;8.75;;;563.90;2432.00;;;;;;5054863;28;20075;-76
2021/11/05 11:09:05;;;;;;;24.08;8.68;;;564.00;2432.00;;;;;;5053519;28;20032;-76
2021/11/05 11:11:36;;;;;;;25.70;13.82;;;564.10;2432.00;;;;;;5053094;28;20364;-75
2021/11/05 11:14:17;;;;;;;24.83;12.55;;;588.90;2432.00;;;;;;5054413;28;20452;-76
2021/11/05 11:16:56;;;;;;;22.25;9.40;;;589.10;2432.00;;;;;;5053410;28;20143;-75
2021/11/05 11:19:26;;;;;;;17.98;8.57;;;589.30;2432.00;;;;;;5054226;28;20048;-76
2021/11/05 11:22:10;;;;;;;25.20;15.30;;;589.40;2432.00;;;;;;5053779;28;20480;-76
2021/11/05 11:24:38;;;;;;;31.20;18.38;;;589.60;2432.00;;;;;;5054118;28;20036;-75
2021/11/05 11:27:06;;;;;;;31.13;19.45;;;589.70;2432.00;;;;;;5053201;28;20031;-75
2021/11/05 11:29:33;;;;;;;15.25;10.00;;;589.70;2432.00;;;;;;5052919;28;20021;-77
2021/11/05 11:32:01;;;;;;;22.80;8.18;;;614.70;2432.00;;;;;;5052722;28;20020;-75
2021/11/05 11:34:27;;;;;;;16.35;7.65;;;614.50;2355.20;;;;;;5052998;28;20507;-75
2021/11/05 11:36:58;;;;;;;20.05;13.27;;;614.60;2329.60;;;;;;5052605;28;20021;-77
2021/11/05 11:39:24;;;;;;;39.28;31.15;;;614.50;2329.60;;;;;;5052607;28;20032;-76
2021/11/05 11:41:52;;;;;;;29.25;18.85;;;614.60;2329.60;;;;;;5054272;28;20021;-76
2021/11/05 11:44:23;;;;;;;21.17;10.27;;;614.70;2304.00;;;;;;5054315;28;20467;-76
2021/11/05 11:46:57;;;;;;;17.38;9.20;;;614.80;2329.60;;;;;;5052918;28;20415;-76
2021/11/05 11:49:38;;;;;;;21.58;9.55;;;614.90;2278.40;;;;;;5054098;28;20016;-76
2021/11/05 11:52:19;;;;;;;38.97;30.58;;;615.10;2252.80;;;;;;5054500;28;20036;-75
2021/11/05 11:54:47;;;;;;;20.17;9.98;;;615.20;2201.60;;;;;;5052929;28;20032;-76
2021/11/05 11:57:26;;;;;;;22.98;8.05;;;615.20;2201.60;;;;;;5053990;28;20029;-76
2021/11/05 12:00:38;;;;;;;13.57;7.03;;;615.10;2176.00;;;;;;5053633;28;20021;-76